< < Back
Terminal Aerodrome Forecast


Current Version              Previous Versions:   1  2  3  4  5  6  7  8  9  

Terminal Aerodrome Forecast

844
FTUS42 KCAE 271450 AAA
TAFAGS
TAF AMD
KAGS 271450Z 2715/2812 28007KT P6SM FEW060 FEW250
     FM271800 26009KT P6SM SCT060
     FM280400 VRB05KT P6SM SKC=

Latest METAR

043
SAUS70 KWBC 271700 RRL
MTRAGS
METAR KAGS 271653Z COR 27007KT 10SM SCT043 34/22 A3003 RMK AO2 SLP167
T03440217


USA.gov is the U.S. government's official web portal to all federal, state and local government web resources and services.